sensor_id;sensor_type;location;lat;lon;timestamp;temperature;humidity
4279;DHT22;2153;47.744;10.580;2023-03-07T00:01:24;1.10;99.90
4279;DHT22;2153;47.744;10.580;2023-03-07T00:03:51;1.00;99.90
4279;DHT22;2153;47.744;10.580;2023-03-07T00:06:18;1.00;99.90
4279;DHT22;2153;47.744;10.580;2023-03-07T00:08:48;1.10;99.90
4279;DHT22;2153;47.744;10.580;2023-03-07T00:11:15;1.00;99.90
4279;DHT22;2153;47.744;10.580;2023-03-07T00:13:41;1.00;99.90
4279;DHT22;2153;47.744;10.580;2023-03-07T00:16:12;1.00;99.90
4279;DHT22;2153;47.744;10.580;2023-03-07T00:18:40;1.00;99.90
4279;DHT22;2153;47.744;10.580;2023-03-07T00:21:11;1.00;99.90
4279;DHT22;2153;47.744;10.580;2023-03-07T00:23:40;1.10;99.90
4279;DHT22;2153;47.744;10.580;2023-03-07T00:26:09;1.00;99.90
4279;DHT22;2153;47.744;10.580;2023-03-07T00:28:36;1.00;99.90
4279;DHT22;2153;47.744;10.580;2023-03-07T00:31:05;1.00;99.90
4279;DHT22;2153;47.744;10.580;2023-03-07T00:33:34;1.00;99.90
4279;DHT22;2153;47.744;10.580;2023-03-07T00:36:02;1.00;99.90
4279;DHT22;2153;47.744;10.580;2023-03-07T00:38:31;0.90;99.90
4279;DHT22;2153;47.744;10.580;2023-03-07T00:40:59;1.00;99.90
4279;DHT22;2153;47.744;10.580;2023-03-07T00:43:26;0.90;99.90
4279;DHT22;2153;47.744;10.580;2023-03-07T00:45:54;0.80;99.90
4279;DHT22;2153;47.744;10.580;2023-03-07T00:48:21;0.80;99.90
4279;DHT22;2153;47.744;10.580;2023-03-07T00:50:50;0.80;99.90
4279;DHT22;2153;47.744;10.580;2023-03-07T00:53:18;0.70;99.90
4279;DHT22;2153;47.744;10.580;2023-03-07T00:55:56;0.70;99.90
4279;DHT22;2153;47.744;10.580;2023-03-07T00:58:23;0.70;99.90
4279;DHT22;2153;47.744;10.580;2023-03-07T01:00:50;0.70;99.90
4279;DHT22;2153;47.744;10.580;2023-03-07T01:03:18;0.70;99.90
4279;DHT22;2153;47.744;10.580;2023-03-07T01:05:45;0.70;99.90
4279;DHT22;2153;47.744;10.580;2023-03-07T01:08:13;0.70;99.90
4279;DHT22;2153;47.744;10.580;2023-03-07T01:10:40;0.70;99.90
4279;DHT22;2153;47.744;10.580;2023-03-07T01:13:06;0.70;99.90
4279;DHT22;2153;47.744;10.580;2023-03-07T01:15:34;0.60;99.90
4279;DHT22;2153;47.744;10.580;2023-03-07T01:18:01;0.60;99.90
4279;DHT22;2153;47.744;10.580;2023-03-07T01:20:30;0.60;99.90
4279;DHT22;2153;47.744;10.580;2023-03-07T01:22:57;0.60;99.90
4279;DHT22;2153;47.744;10.580;2023-03-07T01:25:25;0.60;99.90
4279;DHT22;2153;47.744;10.580;2023-03-07T01:27:52;0.60;99.90
4279;DHT22;2153;47.744;10.580;2023-03-07T01:30:20;0.60;99.90
4279;DHT22;2153;47.744;10.580;2023-03-07T01:32:47;0.60;99.90
4279;DHT22;2153;47.744;10.580;2023-03-07T01:35:14;0.60;99.90
4279;DHT22;2153;47.744;10.580;2023-03-07T01:37:41;0.60;99.90
4279;DHT22;2153;47.744;10.580;2023-03-07T01:40:09;0.70;99.90
4279;DHT22;2153;47.744;10.580;2023-03-07T01:42:37;0.70;99.90
4279;DHT22;2153;47.744;10.580;2023-03-07T01:45:07;0.70;99.90
4279;DHT22;2153;47.744;10.580;2023-03-07T01:47:53;0.60;99.90
4279;DHT22;2153;47.744;10.580;2023-03-07T01:50:20;0.60;99.90
4279;DHT22;2153;47.744;10.580;2023-03-07T01:52:49;0.70;99.90
4279;DHT22;2153;47.744;10.580;2023-03-07T01:55:19;0.70;99.90
4279;DHT22;2153;47.744;10.580;2023-03-07T01:57:50;0.70;99.90
4279;DHT22;2153;47.744;10.580;2023-03-07T02:00:19;0.60;99.90
4279;DHT22;2153;47.744;10.580;2023-03-07T02:02:58;0.60;99.90
4279;DHT22;2153;47.744;10.580;2023-03-07T02:05:32;0.60;99.90
4279;DHT22;2153;47.744;10.580;2023-03-07T02:08:01;0.60;99.90
4279;DHT22;2153;47.744;10.580;2023-03-07T02:10:30;0.70;99.90
4279;DHT22;2153;47.744;10.580;2023-03-07T02:12:59;0.70;99.90
4279;DHT22;2153;47.744;10.580;2023-03-07T02:15:26;0.70;99.90
4279;DHT22;2153;47.744;10.580;2023-03-07T02:17:53;0.70;99.90
4279;DHT22;2153;47.744;10.580;2023-03-07T02:20:29;0.70;99.90
4279;DHT22;2153;47.744;10.580;2023-03-07T02:22:57;0.70;99.90
4279;DHT22;2153;47.744;10.580;2023-03-07T02:25:28;0.80;99.90
4279;DHT22;2153;47.744;10.580;2023-03-07T02:27:58;0.70;99.90
4279;DHT22;2153;47.744;10.580;2023-03-07T02:30:26;0.70;99.90
4279;DHT22;2153;47.744;10.580;2023-03-07T02:32:53;0.70;99.90
4279;DHT22;2153;47.744;10.580;2023-03-07T02:35:21;0.80;99.90
4279;DHT22;2153;47.744;10.580;2023-03-07T02:37:51;0.70;99.90
4279;DHT22;2153;47.744;10.580;2023-03-07T02:40:22;0.70;99.90
4279;DHT22;2153;47.744;10.580;2023-03-07T02:42:53;0.70;99.90
4279;DHT22;2153;47.744;10.580;2023-03-07T02:45:22;0.70;99.90
4279;DHT22;2153;47.744;10.580;2023-03-07T02:47:49;0.70;99.90
4279;DHT22;2153;47.744;10.580;2023-03-07T02:50:16;0.60;99.90
4279;DHT22;2153;47.744;10.580;2023-03-07T02:52:43;0.60;99.90
4279;DHT22;2153;47.744;10.580;2023-03-07T02:55:09;0.50;99.90
4279;DHT22;2153;47.744;10.580;2023-03-07T02:57:37;0.40;99.90
4279;DHT22;2153;47.744;10.580;2023-03-07T03:00:05;0.40;99.90
4279;DHT22;2153;47.744;10.580;2023-03-07T03:02:33;0.40;99.90
4279;DHT22;2153;47.744;10.580;2023-03-07T03:05:00;0.40;99.90
4279;DHT22;2153;47.744;10.580;2023-03-07T03:07:27;0.40;99.90
4279;DHT22;2153;47.744;10.580;2023-03-07T03:09:54;0.40;99.90
4279;DHT22;2153;47.744;10.580;2023-03-07T03:12:20;0.40;99.90
4279;DHT22;2153;47.744;10.580;2023-03-07T03:14:47;0.40;99.90
4279;DHT22;2153;47.744;10.580;2023-03-07T03:17:15;0.40;99.90
4279;DHT22;2153;47.744;10.580;2023-03-07T03:19:43;0.40;99.90
4279;DHT22;2153;47.744;10.580;2023-03-07T03:22:10;0.40;99.90
4279;DHT22;2153;47.744;10.580;2023-03-07T03:24:37;0.40;99.90
4279;DHT22;2153;47.744;10.580;2023-03-07T03:27:05;0.40;99.90
4279;DHT22;2153;47.744;10.580;2023-03-07T03:29:32;0.50;99.90
4279;DHT22;2153;47.744;10.580;2023-03-07T03:31:58;0.60;99.90
4279;DHT22;2153;47.744;10.580;2023-03-07T03:34:25;0.50;99.90
4279;DHT22;2153;47.744;10.580;2023-03-07T03:36:53;0.50;99.90
4279;DHT22;2153;47.744;10.580;2023-03-07T03:39:20;0.50;99.90
4279;DHT22;2153;47.744;10.580;2023-03-07T03:41:47;0.50;99.90
4279;DHT22;2153;47.744;10.580;2023-03-07T03:44:13;0.50;99.90
4279;DHT22;2153;47.744;10.580;2023-03-07T03:46:40;0.40;99.90
4279;DHT22;2153;47.744;10.580;2023-03-07T03:49:07;0.40;99.90
4279;DHT22;2153;47.744;10.580;2023-03-07T03:51:33;0.30;99.90
4279;DHT22;2153;47.744;10.580;2023-03-07T03:54:01;0.40;99.90
4279;DHT22;2153;47.744;10.580;2023-03-07T03:56:28;0.40;99.90
4279;DHT22;2153;47.744;10.580;2023-03-07T03:58:56;0.40;99.90
4279;DHT22;2153;47.744;10.580;2023-03-07T04:01:24;0.40;99.90
4279;DHT22;2153;47.744;10.580;2023-03-07T04:03:52;0.30;99.90
4279;DHT22;2153;47.744;10.580;2023-03-07T04:06:21;0.30;99.90
4279;DHT22;2153;47.744;10.580;2023-03-07T04:08:49;0.30;99.90
4279;DHT22;2153;47.744;10.580;2023-03-07T04:11:18;0.30;99.90
4279;DHT22;2153;47.744;10.580;2023-03-07T04:13:45;0.30;99.90
4279;DHT22;2153;47.744;10.580;2023-03-07T04:16:12;0.30;99.90
4279;DHT22;2153;47.744;10.580;2023-03-07T04:18:39;0.30;99.90
4279;DHT22;2153;47.744;10.580;2023-03-07T04:21:06;0.20;99.90
4279;DHT22;2153;47.744;10.580;2023-03-07T04:23:33;0.20;99.90
4279;DHT22;2153;47.744;10.580;2023-03-07T04:26:01;0.20;99.90
4279;DHT22;2153;47.744;10.580;2023-03-07T04:28:31;0.30;99.90
4279;DHT22;2153;47.744;10.580;2023-03-07T04:31:08;0.30;99.90
4279;DHT22;2153;47.744;10.580;2023-03-07T04:33:34;0.30;99.90
4279;DHT22;2153;47.744;10.580;2023-03-07T04:36:01;0.30;99.90
4279;DHT22;2153;47.744;10.580;2023-03-07T04:38:28;0.20;99.90
4279;DHT22;2153;47.744;10.580;2023-03-07T04:40:54;0.20;99.90
4279;DHT22;2153;47.744;10.580;2023-03-07T04:43:21;0.20;99.90
4279;DHT22;2153;47.744;10.580;2023-03-07T04:45:51;0.20;99.90
4279;DHT22;2153;47.744;10.580;2023-03-07T04:48:18;0.10;99.90
4279;DHT22;2153;47.744;10.580;2023-03-07T04:50:48;0.00;99.90
4279;DHT22;2153;47.744;10.580;2023-03-07T04:53:15;0.00;99.90
4279;DHT22;2153;47.744;10.580;2023-03-07T04:55:43;-0.10;99.90
4279;DHT22;2153;47.744;10.580;2023-03-07T04:58:10;-0.10;99.90
4279;DHT22;2153;47.744;10.580;2023-03-07T05:00:38;-0.10;99.90
4279;DHT22;2153;47.744;10.580;2023-03-07T05:03:06;-0.20;99.90
4279;DHT22;2153;47.744;10.580;2023-03-07T05:05:33;-0.20;99.90
4279;DHT22;2153;47.744;10.580;2023-03-07T05:08:00;-0.20;99.90
4279;DHT22;2153;47.744;10.580;2023-03-07T05:10:28;-0.20;99.90
4279;DHT22;2153;47.744;10.580;2023-03-07T05:12:55;-0.30;99.90
4279;DHT22;2153;47.744;10.580;2023-03-07T05:15:22;-0.30;99.90
4279;DHT22;2153;47.744;10.580;2023-03-07T05:17:49;-0.30;99.90
4279;DHT22;2153;47.744;10.580;2023-03-07T05:20:17;-0.40;99.90
4279;DHT22;2153;47.744;10.580;2023-03-07T05:22:44;-0.40;99.90
4279;DHT22;2153;47.744;10.580;2023-03-07T05:25:12;-0.40;99.90
4279;DHT22;2153;47.744;10.580;2023-03-07T05:27:38;-0.40;99.90
4279;DHT22;2153;47.744;10.580;2023-03-07T05:30:06;-0.30;99.90
4279;DHT22;2153;47.744;10.580;2023-03-07T05:32:33;-0.30;99.90
4279;DHT22;2153;47.744;10.580;2023-03-07T05:35:00;-0.30;99.90
4279;DHT22;2153;47.744;10.580;2023-03-07T05:37:28;-0.30;99.90
4279;DHT22;2153;47.744;10.580;2023-03-07T05:39:55;-0.40;99.90
4279;DHT22;2153;47.744;10.580;2023-03-07T05:42:21;-0.40;99.90
4279;DHT22;2153;47.744;10.580;2023-03-07T05:44:48;-0.50;99.90
4279;DHT22;2153;47.744;10.580;2023-03-07T05:47:15;-0.60;99.90
4279;DHT22;2153;47.744;10.580;2023-03-07T05:49:42;-0.50;99.90
4279;DHT22;2153;47.744;10.580;2023-03-07T05:52:08;-0.50;99.90
4279;DHT22;2153;47.744;10.580;2023-03-07T05:54:36;-0.50;99.90
4279;DHT22;2153;47.744;10.580;2023-03-07T05:57:03;-0.60;99.90
4279;DHT22;2153;47.744;10.580;2023-03-07T05:59:30;-0.60;99.90
4279;DHT22;2153;47.744;10.580;2023-03-07T06:01:56;-0.60;99.90
4279;DHT22;2153;47.744;10.580;2023-03-07T06:04:23;-0.60;99.90
4279;DHT22;2153;47.744;10.580;2023-03-07T06:06:50;-0.50;99.90
4279;DHT22;2153;47.744;10.580;2023-03-07T06:09:16;-0.60;99.90
4279;DHT22;2153;47.744;10.580;2023-03-07T06:11:44;-0.60;99.90
4279;DHT22;2153;47.744;10.580;2023-03-07T06:14:11;-0.50;99.90
4279;DHT22;2153;47.744;10.580;2023-03-07T06:16:38;-0.50;99.90
4279;DHT22;2153;47.744;10.580;2023-03-07T06:19:04;-0.40;99.90
4279;DHT22;2153;47.744;10.580;2023-03-07T06:21:31;-0.40;99.90
4279;DHT22;2153;47.744;10.580;2023-03-07T06:23:58;-0.30;99.90
4279;DHT22;2153;47.744;10.580;2023-03-07T06:26:25;-0.10;99.90
4279;DHT22;2153;47.744;10.580;2023-03-07T06:28:53;0.10;99.90
4279;DHT22;2153;47.744;10.580;2023-03-07T06:31:19;0.20;99.90
4279;DHT22;2153;47.744;10.580;2023-03-07T06:33:46;0.30;99.90
4279;DHT22;2153;47.744;10.580;2023-03-07T06:36:15;0.40;99.90
4279;DHT22;2153;47.744;10.580;2023-03-07T06:38:42;0.40;99.90
4279;DHT22;2153;47.744;10.580;2023-03-07T06:41:09;0.40;99.90
4279;DHT22;2153;47.744;10.580;2023-03-07T06:43:36;0.40;99.90
4279;DHT22;2153;47.744;10.580;2023-03-07T06:46:05;0.30;99.90
4279;DHT22;2153;47.744;10.580;2023-03-07T06:48:32;0.20;99.90
4279;DHT22;2153;47.744;10.580;2023-03-07T06:50:59;0.20;99.90
4279;DHT22;2153;47.744;10.580;2023-03-07T06:53:26;0.40;99.90
4279;DHT22;2153;47.744;10.580;2023-03-07T06:55:52;0.60;99.90
4279;DHT22;2153;47.744;10.580;2023-03-07T06:58:19;0.90;99.90
4279;DHT22;2153;47.744;10.580;2023-03-07T07:00:46;1.30;99.90
4279;DHT22;2153;47.744;10.580;2023-03-07T07:03:14;1.50;99.90
4279;DHT22;2153;47.744;10.580;2023-03-07T07:05:41;1.70;99.90
4279;DHT22;2153;47.744;10.580;2023-03-07T07:08:08;1.90;99.90
4279;DHT22;2153;47.744;10.580;2023-03-07T07:10:35;2.20;99.90
4279;DHT22;2153;47.744;10.580;2023-03-07T07:13:02;2.30;99.90
4279;DHT22;2153;47.744;10.580;2023-03-07T07:15:29;2.50;99.90
4279;DHT22;2153;47.744;10.580;2023-03-07T07:17:56;2.70;99.90
4279;DHT22;2153;47.744;10.580;2023-03-07T07:20:24;3.00;99.90
4279;DHT22;2153;47.744;10.580;2023-03-07T07:22:50;3.30;99.90
4279;DHT22;2153;47.744;10.580;2023-03-07T07:25:17;3.50;99.90
4279;DHT22;2153;47.744;10.580;2023-03-07T07:27:44;3.40;99.90
4279;DHT22;2153;47.744;10.580;2023-03-07T07:30:11;3.70;99.90
4279;DHT22;2153;47.744;10.580;2023-03-07T07:32:38;3.90;99.90
4279;DHT22;2153;47.744;10.580;2023-03-07T07:35:05;3.60;99.90
4279;DHT22;2153;47.744;10.580;2023-03-07T07:37:33;3.80;99.90
4279;DHT22;2153;47.744;10.580;2023-03-07T07:40:00;4.00;99.90
4279;DHT22;2153;47.744;10.580;2023-03-07T07:42:27;4.10;99.90
4279;DHT22;2153;47.744;10.580;2023-03-07T07:44:53;4.60;99.90
4279;DHT22;2153;47.744;10.580;2023-03-07T07:47:20;4.70;99.90
4279;DHT22;2153;47.744;10.580;2023-03-07T07:49:48;5.00;99.90
4279;DHT22;2153;47.744;10.580;2023-03-07T07:52:14;4.80;99.90
4279;DHT22;2153;47.744;10.580;2023-03-07T07:54:42;4.60;99.90
4279;DHT22;2153;47.744;10.580;2023-03-07T07:57:09;4.50;99.90
4279;DHT22;2153;47.744;10.580;2023-03-07T07:59:36;4.60;99.90
4279;DHT22;2153;47.744;10.580;2023-03-07T08:02:02;4.90;99.90
4279;DHT22;2153;47.744;10.580;2023-03-07T08:04:29;4.90;99.90
4279;DHT22;2153;47.744;10.580;2023-03-07T08:06:56;4.90;99.90
4279;DHT22;2153;47.744;10.580;2023-03-07T08:09:23;5.30;99.90
4279;DHT22;2153;47.744;10.580;2023-03-07T08:11:51;5.60;99.90
4279;DHT22;2153;47.744;10.580;2023-03-07T08:14:17;5.80;99.90
4279;DHT22;2153;47.744;10.580;2023-03-07T08:16:44;5.70;99.90
4279;DHT22;2153;47.744;10.580;2023-03-07T08:19:11;6.00;99.90
4279;DHT22;2153;47.744;10.580;2023-03-07T08:21:37;5.90;99.90
4279;DHT22;2153;47.744;10.580;2023-03-07T08:24:05;6.70;99.90
4279;DHT22;2153;47.744;10.580;2023-03-07T08:26:32;6.70;99.90
4279;DHT22;2153;47.744;10.580;2023-03-07T08:29:00;6.60;99.90
4279;DHT22;2153;47.744;10.580;2023-03-07T08:31:26;6.80;99.90
4279;DHT22;2153;47.744;10.580;2023-03-07T08:33:53;7.00;99.90
4279;DHT22;2153;47.744;10.580;2023-03-07T08:36:20;6.50;99.90
4279;DHT22;2153;47.744;10.580;2023-03-07T08:38:47;6.50;99.90
4279;DHT22;2153;47.744;10.580;2023-03-07T08:41:16;6.40;99.90
4279;DHT22;2153;47.744;10.580;2023-03-07T08:43:44;6.30;99.90
4279;DHT22;2153;47.744;10.580;2023-03-07T08:46:12;6.10;99.90
4279;DHT22;2153;47.744;10.580;2023-03-07T08:48:38;5.80;99.90
4279;DHT22;2153;47.744;10.580;2023-03-07T08:51:07;5.30;99.90
4279;DHT22;2153;47.744;10.580;2023-03-07T08:53:34;5.10;99.90
4279;DHT22;2153;47.744;10.580;2023-03-07T08:56:04;5.30;99.90
4279;DHT22;2153;47.744;10.580;2023-03-07T08:58:31;5.30;99.90
4279;DHT22;2153;47.744;10.580;2023-03-07T09:00:58;5.20;99.90
4279;DHT22;2153;47.744;10.580;2023-03-07T09:03:26;5.60;99.90
4279;DHT22;2153;47.744;10.580;2023-03-07T09:05:53;6.00;99.90
4279;DHT22;2153;47.744;10.580;2023-03-07T09:08:19;6.30;99.90
4279;DHT22;2153;47.744;10.580;2023-03-07T09:10:46;6.40;99.90
4279;DHT22;2153;47.744;10.580;2023-03-07T09:13:13;6.50;99.90
4279;DHT22;2153;47.744;10.580;2023-03-07T09:15:40;6.00;99.90
4279;DHT22;2153;47.744;10.580;2023-03-07T09:18:07;6.30;99.90
4279;DHT22;2153;47.744;10.580;2023-03-07T09:20:37;6.30;99.90
4279;DHT22;2153;47.744;10.580;2023-03-07T09:23:04;6.10;99.90
4279;DHT22;2153;47.744;10.580;2023-03-07T09:25:31;6.10;99.90
4279;DHT22;2153;47.744;10.580;2023-03-07T09:27:57;5.90;99.90
4279;DHT22;2153;47.744;10.580;2023-03-07T09:30:24;6.00;99.90
4279;DHT22;2153;47.744;10.580;2023-03-07T09:32:53;6.60;99.90
4279;DHT22;2153;47.744;10.580;2023-03-07T09:35:19;6.60;99.90
4279;DHT22;2153;47.744;10.580;2023-03-07T09:37:47;6.40;99.90
4279;DHT22;2153;47.744;10.580;2023-03-07T09:40:18;6.20;99.90
4279;DHT22;2153;47.744;10.580;2023-03-07T09:42:54;5.70;99.90
4279;DHT22;2153;47.744;10.580;2023-03-07T09:45:33;5.50;99.90
4279;DHT22;2153;47.744;10.580;2023-03-07T09:48:27;5.30;99.90
4279;DHT22;2153;47.744;10.580;2023-03-07T09:50:57;5.40;99.90
4279;DHT22;2153;47.744;10.580;2023-03-07T09:53:31;5.60;99.90
4279;DHT22;2153;47.744;10.580;2023-03-07T09:56:04;5.90;99.90
4279;DHT22;2153;47.744;10.580;2023-03-07T09:58:35;6.00;99.90
4279;DHT22;2153;47.744;10.580;2023-03-07T10:01:04;5.90;99.90
4279;DHT22;2153;47.744;10.580;2023-03-07T10:03:37;6.00;99.90
4279;DHT22;2153;47.744;10.580;2023-03-07T10:06:11;6.00;99.90
4279;DHT22;2153;47.744;10.580;2023-03-07T10:08:40;5.80;99.90
4279;DHT22;2153;47.744;10.580;2023-03-07T10:11:19;5.80;99.90
4279;DHT22;2153;47.744;10.580;2023-03-07T10:14:04;5.50;99.90
4279;DHT22;2153;47.744;10.580;2023-03-07T10:16:38;5.40;99.90
4279;DHT22;2153;47.744;10.580;2023-03-07T10:19:12;5.50;99.90
4279;DHT22;2153;47.744;10.580;2023-03-07T10:21:48;5.70;99.90
4279;DHT22;2153;47.744;10.580;2023-03-07T10:24:26;5.70;99.90
4279;DHT22;2153;47.744;10.580;2023-03-07T10:26:59;5.50;99.90
4279;DHT22;2153;47.744;10.580;2023-03-07T10:29:28;5.30;99.90
4279;DHT22;2153;47.744;10.580;2023-03-07T10:32:04;5.50;99.90
4279;DHT22;2153;47.744;10.580;2023-03-07T10:34:31;6.80;99.90
4279;DHT22;2153;47.744;10.580;2023-03-07T10:37:00;7.50;99.90
4279;DHT22;2153;47.744;10.580;2023-03-07T10:39:35;7.00;99.90
4279;DHT22;2153;47.744;10.580;2023-03-07T10:42:04;6.90;99.90
4279;DHT22;2153;47.744;10.580;2023-03-07T10:44:32;6.80;99.90
4279;DHT22;2153;47.744;10.580;2023-03-07T10:46:59;6.90;99.90
4279;DHT22;2153;47.744;10.580;2023-03-07T10:49:27;6.60;99.90
4279;DHT22;2153;47.744;10.580;2023-03-07T10:51:57;6.30;99.90
4279;DHT22;2153;47.744;10.580;2023-03-07T10:54:28;6.30;99.90
4279;DHT22;2153;47.744;10.580;2023-03-07T10:57:10;6.50;99.90
4279;DHT22;2153;47.744;10.580;2023-03-07T10:59:38;6.50;99.90
4279;DHT22;2153;47.744;10.580;2023-03-07T11:02:29;6.90;99.90
4279;DHT22;2153;47.744;10.580;2023-03-07T11:04:56;7.70;99.90
4279;DHT22;2153;47.744;10.580;2023-03-07T11:07:25;8.20;98.70
4279;DHT22;2153;47.744;10.580;2023-03-07T11:09:53;8.60;95.40
4279;DHT22;2153;47.744;10.580;2023-03-07T11:12:23;9.10;88.70
4279;DHT22;2153;47.744;10.580;2023-03-07T11:14:51;9.70;83.00
4279;DHT22;2153;47.744;10.580;2023-03-07T11:17:20;10.20;56.00
4279;DHT22;2153;47.744;10.580;2023-03-07T11:19:49;10.30;49.20
4279;DHT22;2153;47.744;10.580;2023-03-07T11:22:23;10.10;39.10
4279;DHT22;2153;47.744;10.580;2023-03-07T11:24:54;10.00;51.50
4279;DHT22;2153;47.744;10.580;2023-03-07T11:27:29;9.50;40.70
4279;DHT22;2153;47.744;10.580;2023-03-07T11:30:24;9.40;54.20
4279;DHT22;2153;47.744;10.580;2023-03-07T11:33:00;9.40;40.70
4279;DHT22;2153;47.744;10.580;2023-03-07T11:35:53;9.00;51.90
4279;DHT22;2153;47.744;10.580;2023-03-07T11:38:28;9.50;56.20
4279;DHT22;2153;47.744;10.580;2023-03-07T11:41:01;9.40;42.60
4279;DHT22;2153;47.744;10.580;2023-03-07T11:43:45;9.40;55.20
4279;DHT22;2153;47.744;10.580;2023-03-07T11:46:21;9.40;43.80
4279;DHT22;2153;47.744;10.580;2023-03-07T11:48:59;9.30;47.00
4279;DHT22;2153;47.744;10.580;2023-03-07T11:51:39;9.00;51.20
4279;DHT22;2153;47.744;10.580;2023-03-07T11:54:16;9.40;48.80
4279;DHT22;2153;47.744;10.580;2023-03-07T11:56:49;9.50;48.10
4279;DHT22;2153;47.744;10.580;2023-03-07T12:02:43;9.20;57.10
4279;DHT22;2153;47.744;10.580;2023-03-07T12:05:26;9.30;57.30
4279;DHT22;2153;47.744;10.580;2023-03-07T12:08:10;9.50;55.00
4279;DHT22;2153;47.744;10.580;2023-03-07T12:10:50;9.70;69.80
4279;DHT22;2153;47.744;10.580;2023-03-07T12:13:32;9.50;34.60
4279;DHT22;2153;47.744;10.580;2023-03-07T12:16:11;9.40;39.80
4279;DHT22;2153;47.744;10.580;2023-03-07T12:18:54;9.30;49.50
4279;DHT22;2153;47.744;10.580;2023-03-07T12:21:39;9.20;47.50
4279;DHT22;2153;47.744;10.580;2023-03-07T12:24:15;9.10;49.60
4279;DHT22;2153;47.744;10.580;2023-03-07T12:26:48;9.10;55.10
4279;DHT22;2153;47.744;10.580;2023-03-07T12:29:22;9.10;54.20
4279;DHT22;2153;47.744;10.580;2023-03-07T12:31:57;9.00;56.30
4279;DHT22;2153;47.744;10.580;2023-03-07T12:34:30;8.80;58.60
4279;DHT22;2153;47.744;10.580;2023-03-07T12:37:03;8.80;65.20
4279;DHT22;2153;47.744;10.580;2023-03-07T12:39:39;8.80;58.60
4279;DHT22;2153;47.744;10.580;2023-03-07T12:42:14;9.00;54.80
4279;DHT22;2153;47.744;10.580;2023-03-07T12:44:46;8.90;59.60
4279;DHT22;2153;47.744;10.580;2023-03-07T12:47:20;9.00;52.00
4279;DHT22;2153;47.744;10.580;2023-03-07T12:49:53;8.90;58.10
4279;DHT22;2153;47.744;10.580;2023-03-07T12:52:29;9.00;66.30
4279;DHT22;2153;47.744;10.580;2023-03-07T12:55:01;9.10;65.40
4279;DHT22;2153;47.744;10.580;2023-03-07T12:57:35;9.10;66.40
4279;DHT22;2153;47.744;10.580;2023-03-07T13:00:08;8.90;67.50
4279;DHT22;2153;47.744;10.580;2023-03-07T13:02:40;8.70;65.50
4279;DHT22;2153;47.744;10.580;2023-03-07T13:05:17;8.70;75.50
4279;DHT22;2153;47.744;10.580;2023-03-07T13:07:45;8.70;70.60
4279;DHT22;2153;47.744;10.580;2023-03-07T13:10:16;8.70;70.50
4279;DHT22;2153;47.744;10.580;2023-03-07T13:12:44;8.70;67.30
4279;DHT22;2153;47.744;10.580;2023-03-07T13:15:44;9.00;74.30
4279;DHT22;2153;47.744;10.580;2023-03-07T13:18:27;8.90;73.50
4279;DHT22;2153;47.744;10.580;2023-03-07T13:21:13;8.90;76.50
4279;DHT22;2153;47.744;10.580;2023-03-07T13:24:30;9.00;80.00
4279;DHT22;2153;47.744;10.580;2023-03-07T13:26:57;8.90;80.40
4279;DHT22;2153;47.744;10.580;2023-03-07T13:32:56;8.70;69.10
4279;DHT22;2153;47.744;10.580;2023-03-07T13:35:53;9.10;78.30
4279;DHT22;2153;47.744;10.580;2023-03-07T13:38:32;9.40;61.40
4279;DHT22;2153;47.744;10.580;2023-03-07T13:41:00;9.50;70.40
4279;DHT22;2153;47.744;10.580;2023-03-07T13:46:47;9.20;72.30
4279;DHT22;2153;47.744;10.580;2023-03-07T13:49:38;9.20;52.20
4279;DHT22;2153;47.744;10.580;2023-03-07T13:52:26;9.20;55.40
4279;DHT22;2153;47.744;10.580;2023-03-07T13:54:55;9.20;59.30
4279;DHT22;2153;47.744;10.580;2023-03-07T13:57:24;9.00;43.70
4279;DHT22;2153;47.744;10.580;2023-03-07T13:59:54;8.80;53.40
4279;DHT22;2153;47.744;10.580;2023-03-07T14:02:21;8.90;59.50
4279;DHT22;2153;47.744;10.580;2023-03-07T14:04:50;8.90;70.90
4279;DHT22;2153;47.744;10.580;2023-03-07T14:07:22;8.90;76.70
4279;DHT22;2153;47.744;10.580;2023-03-07T14:09:52;8.70;64.60
4279;DHT22;2153;47.744;10.580;2023-03-07T14:12:31;8.60;61.10
4279;DHT22;2153;47.744;10.580;2023-03-07T14:15:09;8.50;68.50
4279;DHT22;2153;47.744;10.580;2023-03-07T14:17:50;8.30;66.50
4279;DHT22;2153;47.744;10.580;2023-03-07T14:20:27;8.50;81.40
4279;DHT22;2153;47.744;10.580;2023-03-07T14:23:07;9.00;66.10
4279;DHT22;2153;47.744;10.580;2023-03-07T14:25:38;9.30;49.50
4279;DHT22;2153;47.744;10.580;2023-03-07T14:28:18;9.10;28.60
4279;DHT22;2153;47.744;10.580;2023-03-07T14:30:52;9.00;37.90
4279;DHT22;2153;47.744;10.580;2023-03-07T14:33:20;9.00;34.50
4279;DHT22;2153;47.744;10.580;2023-03-07T14:35:47;8.90;45.50
4279;DHT22;2153;47.744;10.580;2023-03-07T14:38:19;8.60;52.50
4279;DHT22;2153;47.744;10.580;2023-03-07T14:41:12;8.30;52.80
4279;DHT22;2153;47.744;10.580;2023-03-07T14:43:59;8.00;46.50
4279;DHT22;2153;47.744;10.580;2023-03-07T14:46:35;7.90;58.40
4279;DHT22;2153;47.744;10.580;2023-03-07T14:49:13;7.80;59.00
4279;DHT22;2153;47.744;10.580;2023-03-07T14:51:43;7.70;72.80
4279;DHT22;2153;47.744;10.580;2023-03-07T14:54:15;7.80;69.20
4279;DHT22;2153;47.744;10.580;2023-03-07T14:56:42;8.10;69.00
4279;DHT22;2153;47.744;10.580;2023-03-07T14:59:11;8.10;70.10
4279;DHT22;2153;47.744;10.580;2023-03-07T15:01:39;8.10;61.80
4279;DHT22;2153;47.744;10.580;2023-03-07T15:04:20;8.00;68.30
4279;DHT22;2153;47.744;10.580;2023-03-07T15:06:52;7.80;72.60
4279;DHT22;2153;47.744;10.580;2023-03-07T15:09:21;7.70;75.20
4279;DHT22;2153;47.744;10.580;2023-03-07T15:11:51;7.60;77.90
4279;DHT22;2153;47.744;10.580;2023-03-07T15:14:22;7.50;83.40
4279;DHT22;2153;47.744;10.580;2023-03-07T15:16:53;7.50;81.30
4279;DHT22;2153;47.744;10.580;2023-03-07T15:19:29;7.60;91.80
4279;DHT22;2153;47.744;10.580;2023-03-07T15:21:58;7.60;81.30
4279;DHT22;2153;47.744;10.580;2023-03-07T15:24:29;7.40;77.30
4279;DHT22;2153;47.744;10.580;2023-03-07T15:26:58;7.20;72.90
4279;DHT22;2153;47.744;10.580;2023-03-07T15:29:27;7.10;85.00
4279;DHT22;2153;47.744;10.580;2023-03-07T15:31:57;7.10;90.20
4279;DHT22;2153;47.744;10.580;2023-03-07T15:34:26;7.20;94.90
4279;DHT22;2153;47.744;10.580;2023-03-07T15:36:53;7.20;94.10
4279;DHT22;2153;47.744;10.580;2023-03-07T15:39:28;7.10;95.30
4279;DHT22;2153;47.744;10.580;2023-03-07T15:42:00;7.10;95.20
4279;DHT22;2153;47.744;10.580;2023-03-07T15:44:27;7.20;99.90
4279;DHT22;2153;47.744;10.580;2023-03-07T15:46:56;7.10;94.10
4279;DHT22;2153;47.744;10.580;2023-03-07T15:49:27;6.90;97.90
4279;DHT22;2153;47.744;10.580;2023-03-07T15:51:58;6.70;99.90
4279;DHT22;2153;47.744;10.580;2023-03-07T15:54:36;6.50;99.90
4279;DHT22;2153;47.744;10.580;2023-03-07T15:57:06;6.30;99.90
4279;DHT22;2153;47.744;10.580;2023-03-07T15:59:36;6.10;99.90
4279;DHT22;2153;47.744;10.580;2023-03-07T16:02:33;5.80;99.90
4279;DHT22;2153;47.744;10.580;2023-03-07T16:05:02;5.70;99.90
4279;DHT22;2153;47.744;10.580;2023-03-07T16:07:29;5.60;99.90
4279;DHT22;2153;47.744;10.580;2023-03-07T16:09:57;5.50;99.90
4279;DHT22;2153;47.744;10.580;2023-03-07T16:12:24;5.50;99.90
4279;DHT22;2153;47.744;10.580;2023-03-07T16:14:52;5.40;99.90
4279;DHT22;2153;47.744;10.580;2023-03-07T16:17:24;5.40;99.90
4279;DHT22;2153;47.744;10.580;2023-03-07T16:19:53;5.30;99.90
4279;DHT22;2153;47.744;10.580;2023-03-07T16:22:21;5.20;99.90
4279;DHT22;2153;47.744;10.580;2023-03-07T16:24:47;5.20;99.90
4279;DHT22;2153;47.744;10.580;2023-03-07T16:27:17;5.10;99.90
4279;DHT22;2153;47.744;10.580;2023-03-07T16:29:44;5.10;99.90